Terminal Aerodrome Forecast
Issued by NWS

Home | Current Version | Previous Version | Text Only | Print | Product List | Glossary On
Versions: 1 2 3 4 5 6 7 8 9 10 11 12 13
000
FTUS45 KRIW 310531
TAFJAC
TAF
KJAC 310531Z 3106/0106 VRB06KT P6SM FEW110 SCT200
     FM311700 22011KT P6SM VCSH SCT100
     FM312000 22015G23KT P6SM VCTS SCT090CB
     FM010100 20009KT P6SM SCT110
     FM010500 VRB06KT P6SM SKC
      AMD LTD TO CLD VIS AND WIND=

USA.gov is the U.S. government's official web portal to all federal, state and local government web resources and services.